createdAt,value
2018-07-20T00:02:05.672Z,3.70
2018-07-20T00:04:34.437Z,4.03
2018-07-20T00:07:03.234Z,4.40
2018-07-20T00:09:32.053Z,4.43
2018-07-20T00:12:00.832Z,3.83
2018-07-20T00:14:29.785Z,4.50
2018-07-20T00:16:58.625Z,4.30
2018-07-20T00:19:27.411Z,4.40
2018-07-20T00:21:56.221Z,5.20
2018-07-20T00:24:24.988Z,4.70
2018-07-20T00:26:53.772Z,4.00
2018-07-20T00:29:22.693Z,4.00
2018-07-20T00:31:51.537Z,4.90
2018-07-20T00:34:20.338Z,4.63
2018-07-20T00:36:49.092Z,3.73
2018-07-20T00:39:17.901Z,4.50
2018-07-20T00:41:46.657Z,4.10
2018-07-20T00:44:15.413Z,4.23
2018-07-20T00:46:44.252Z,5.23
2018-07-20T00:49:13.141Z,4.70
2018-07-20T00:51:42.480Z,4.63
2018-07-20T00:54:11.340Z,4.67
2018-07-20T00:56:40.152Z,5.73
2018-07-20T00:59:09.269Z,7.57
2018-07-20T01:01:38.024Z,4.23
2018-07-20T01:04:06.825Z,4.70
2018-07-20T01:06:35.676Z,4.50
2018-07-20T01:09:07.303Z,4.80
2018-07-20T01:11:36.070Z,5.30
2018-07-20T01:14:05.169Z,5.67
2018-07-20T01:16:33.952Z,4.20
2018-07-20T01:19:03.061Z,4.70
2018-07-20T01:21:31.824Z,5.40
2018-07-20T01:24:00.580Z,5.07
2018-07-20T01:26:29.366Z,5.47
2018-07-20T01:28:58.156Z,5.23
2018-07-20T01:31:26.950Z,4.57
2018-07-20T01:33:55.723Z,5.13
2018-07-20T01:36:24.523Z,5.50
2018-07-20T01:38:53.304Z,4.50
2018-07-20T01:41:22.101Z,5.23
2018-07-20T01:43:50.861Z,5.80
2018-07-20T01:46:19.661Z,6.03
2018-07-20T01:48:48.565Z,6.07
2018-07-20T01:51:17.321Z,6.47
2018-07-20T01:53:46.165Z,6.07
2018-07-20T01:56:14.985Z,6.20
2018-07-20T01:58:44.133Z,6.27
2018-07-20T02:01:12.992Z,6.43
2018-07-20T02:03:41.985Z,6.37
2018-07-20T02:06:10.849Z,6.80
2018-07-20T02:08:39.752Z,5.40
2018-07-20T02:11:08.537Z,5.73
2018-07-20T02:13:37.388Z,5.13
2018-07-20T02:16:06.145Z,6.23
2018-07-20T02:18:34.937Z,6.27
2018-07-20T02:21:03.684Z,5.60
2018-07-20T02:23:32.592Z,5.73
2018-07-20T02:26:01.256Z,6.20
2018-07-20T02:28:29.892Z,5.40
2018-07-20T02:30:58.687Z,6.27
2018-07-20T02:33:27.337Z,6.13
2018-07-20T02:35:55.974Z,6.07
2018-07-20T02:38:24.753Z,5.77
2018-07-20T02:40:53.509Z,6.20
2018-07-20T02:43:22.394Z,5.70
2018-07-20T02:45:51.157Z,5.00
2018-07-20T02:48:20.196Z,6.53
2018-07-20T02:50:48.958Z,6.13
2018-07-20T02:53:17.709Z,6.17
2018-07-20T02:55:46.541Z,5.13
2018-07-20T02:58:15.292Z,5.57
2018-07-20T03:00:44.085Z,5.07
2018-07-20T03:03:12.708Z,6.93
2018-07-20T03:05:41.413Z,6.10
2018-07-20T03:08:10.180Z,5.77
2018-07-20T03:10:39.264Z,7.40
2018-07-20T03:13:08.204Z,6.47
2018-07-20T03:15:37.140Z,6.43
2018-07-20T03:18:06.018Z,6.47
2018-07-20T03:20:34.912Z,6.40
2018-07-20T03:23:03.704Z,6.07
2018-07-20T03:25:32.458Z,6.70
2018-07-20T03:28:01.253Z,5.83
2018-07-20T03:30:31.005Z,6.60
2018-07-20T03:32:59.800Z,6.33
2018-07-20T03:35:28.585Z,6.10
2018-07-20T03:37:57.449Z,6.40
2018-07-20T03:40:26.233Z,6.50
2018-07-20T03:42:55.111Z,7.47
2018-07-20T03:45:23.860Z,5.87
2018-07-20T03:47:52.652Z,7.03
2018-07-20T03:50:21.409Z,6.20
2018-07-20T03:52:50.196Z,6.87
2018-07-20T03:55:19.160Z,5.83
2018-07-20T03:57:48.065Z,5.70
2018-07-20T04:00:17.177Z,5.80
2018-07-20T04:02:45.949Z,6.30
2018-07-20T04:05:14.746Z,5.83
2018-07-20T04:07:43.581Z,4.50
2018-07-20T04:10:12.421Z,5.23
2018-07-20T04:12:41.181Z,5.77
2018-07-20T04:15:10.024Z,5.00
2018-07-20T04:17:44.100Z,5.30
2018-07-20T04:20:14.369Z,5.87
2018-07-20T04:22:43.320Z,5.57
2018-07-20T04:25:12.125Z,7.23
2018-07-20T04:27:40.949Z,6.10
2018-07-20T04:30:11.933Z,4.90
2018-07-20T04:32:40.725Z,6.00
2018-07-20T04:35:10.417Z,6.97
2018-07-20T04:37:39.224Z,6.07
2018-07-20T04:40:08.333Z,5.80
2018-07-20T04:42:37.136Z,6.13
2018-07-20T04:45:06.127Z,6.37
2018-07-20T04:47:35.145Z,6.20
2018-07-20T04:50:04.630Z,5.60
2018-07-20T04:52:33.312Z,5.80
2018-07-20T04:55:02.106Z,5.10
2018-07-20T04:57:30.991Z,5.43
2018-07-20T04:59:59.780Z,6.63
2018-07-20T05:02:28.673Z,5.90
2018-07-20T05:04:57.433Z,5.73
2018-07-20T05:07:26.472Z,5.70
2018-07-20T05:09:55.225Z,5.10
2018-07-20T05:12:24.082Z,5.50
2018-07-20T05:14:52.877Z,5.57
2018-07-20T05:17:21.772Z,6.87
2018-07-20T05:19:50.601Z,6.20
2018-07-20T05:22:19.369Z,5.90
2018-07-20T05:24:48.184Z,6.13
2018-07-20T05:27:16.972Z,5.23
2018-07-20T05:29:45.727Z,4.80
2018-07-20T05:32:14.541Z,5.00
2018-07-20T05:34:43.595Z,5.53
2018-07-20T05:37:12.416Z,4.10
2018-07-20T05:39:41.182Z,4.63
2018-07-20T05:42:09.982Z,4.30
2018-07-20T05:44:38.796Z,3.90
2018-07-20T05:47:07.612Z,4.50
2018-07-20T05:49:36.368Z,4.63
2018-07-20T05:52:05.317Z,4.60
2018-07-20T05:54:34.310Z,4.40
2018-07-20T05:57:03.104Z,3.63
2018-07-20T05:59:31.896Z,4.10
2018-07-20T06:02:00.681Z,4.27
2018-07-20T06:04:29.437Z,4.20
2018-07-20T06:06:58.200Z,3.90
2018-07-20T06:09:27.000Z,3.53
2018-07-20T06:11:55.812Z,3.70
2018-07-20T06:14:24.577Z,3.20
2018-07-20T06:16:53.400Z,3.93
2018-07-20T06:19:22.213Z,3.77
2018-07-20T06:21:51.001Z,3.63
2018-07-20T06:24:19.758Z,4.30
2018-07-20T06:26:48.529Z,3.07
2018-07-20T06:29:17.344Z,2.50
2018-07-20T06:31:46.229Z,2.73
2018-07-20T06:34:15.028Z,3.00
2018-07-20T06:36:43.877Z,3.67
2018-07-20T06:39:13.140Z,3.33
2018-07-20T06:41:42.353Z,4.03
2018-07-20T06:44:11.147Z,3.70
2018-07-20T06:46:39.959Z,2.50
2018-07-20T06:49:08.811Z,2.43
2018-07-20T06:51:37.862Z,2.80
2018-07-20T06:54:06.669Z,2.80
2018-07-20T06:56:35.549Z,1.77
2018-07-20T06:59:04.570Z,2.10
2018-07-20T07:01:33.564Z,2.17
2018-07-20T07:04:05.703Z,2.17
2018-07-20T07:06:34.480Z,2.40
2018-07-20T07:09:03.649Z,1.80
2018-07-20T07:11:32.892Z,2.37
2018-07-20T07:14:01.677Z,1.93
2018-07-20T07:16:30.473Z,2.00
2018-07-20T07:18:59.478Z,2.20
2018-07-20T07:21:28.284Z,2.20
2018-07-20T07:23:57.200Z,2.17
2018-07-20T07:26:25.995Z,2.80
2018-07-20T07:28:54.888Z,2.10
2018-07-20T07:31:23.680Z,2.17
2018-07-20T07:33:52.484Z,1.73
2018-07-20T07:36:21.765Z,2.00
2018-07-20T07:38:50.524Z,2.03
2018-07-20T07:41:19.408Z,2.57
2018-07-20T07:43:48.321Z,2.70
2018-07-20T07:46:17.112Z,2.17
2018-07-20T07:48:45.869Z,2.93
2018-07-20T07:51:14.716Z,1.77
2018-07-20T07:53:43.509Z,2.50
2018-07-20T07:56:12.268Z,2.50
2018-07-20T07:58:41.636Z,3.07
2018-07-20T08:01:10.444Z,2.13
2018-07-20T08:03:39.213Z,2.40
2018-07-20T08:06:08.013Z,2.80
2018-07-20T08:08:36.769Z,2.40
2018-07-20T08:11:05.559Z,2.80
2018-07-20T08:13:34.352Z,2.13
2018-07-20T08:16:03.173Z,2.80
2018-07-20T08:18:32.140Z,2.07
2018-07-20T08:21:00.949Z,2.27
2018-07-20T08:23:29.745Z,2.70
2018-07-20T08:25:58.760Z,2.57
2018-07-20T08:28:27.554Z,2.50
2018-07-20T08:30:56.341Z,2.50
2018-07-20T08:33:25.466Z,2.63
2018-07-20T08:35:54.204Z,3.40
2018-07-20T08:38:22.960Z,2.63
2018-07-20T08:40:51.760Z,2.03
2018-07-20T08:43:20.524Z,3.00
2018-07-20T08:45:49.833Z,2.20
2018-07-20T08:48:18.688Z,2.60
2018-07-20T08:50:47.476Z,3.07
2018-07-20T08:53:16.584Z,3.83
2018-07-20T08:55:45.328Z,2.50
2018-07-20T08:58:14.193Z,2.07
2018-07-20T09:00:43.179Z,3.07
2018-07-20T09:03:11.933Z,2.50
2018-07-20T09:05:41.304Z,2.50
2018-07-20T09:08:10.112Z,2.40
2018-07-20T09:10:39.189Z,3.37
2018-07-20T09:13:07.984Z,2.30
2018-07-20T09:15:36.777Z,1.90
2018-07-20T09:18:05.620Z,2.40
2018-07-20T09:20:34.368Z,2.07
2018-07-20T09:23:03.428Z,2.10
2018-07-20T09:25:32.329Z,2.00
2018-07-20T09:28:01.134Z,2.40
2018-07-20T09:30:29.938Z,2.40
2018-07-20T09:32:58.703Z,1.90
2018-07-20T09:35:27.536Z,2.57
2018-07-20T09:37:56.396Z,2.70
2018-07-20T09:40:25.239Z,2.93
2018-07-20T09:42:54.074Z,2.50
2018-07-20T09:45:22.797Z,3.00
2018-07-20T09:47:51.621Z,2.80
2018-07-20T09:50:20.652Z,3.03
2018-07-20T09:52:49.452Z,2.40
2018-07-20T09:55:18.248Z,3.07
2018-07-20T09:57:47.159Z,3.40
2018-07-20T10:00:52.024Z,2.93
2018-07-20T10:03:21.760Z,2.90
2018-07-20T10:05:50.537Z,2.77
2018-07-20T10:08:20.071Z,3.40
2018-07-20T10:10:48.850Z,2.70
2018-07-20T10:13:18.172Z,3.03
2018-07-20T10:15:46.803Z,2.90
2018-07-20T10:18:16.104Z,3.60
2018-07-20T10:20:44.993Z,2.63
2018-07-20T10:23:13.784Z,2.70
2018-07-20T10:25:42.581Z,3.20
2018-07-20T10:28:11.591Z,3.40
2018-07-20T10:30:40.438Z,3.50
2018-07-20T10:33:09.171Z,3.03
2018-07-20T10:35:38.261Z,2.60
2018-07-20T10:38:07.024Z,3.13
2018-07-20T10:40:35.856Z,2.87
2018-07-20T10:43:04.936Z,2.60
2018-07-20T10:45:33.766Z,3.30
2018-07-20T10:48:02.618Z,3.30
2018-07-20T10:50:31.417Z,3.60
2018-07-20T10:53:00.312Z,3.30
2018-07-20T10:55:29.065Z,3.17
2018-07-20T10:57:57.848Z,3.97
2018-07-20T11:00:26.680Z,3.17
2018-07-20T11:02:55.470Z,2.80
2018-07-20T11:05:24.237Z,3.83
2018-07-20T11:07:53.023Z,3.30
2018-07-20T11:10:21.917Z,4.10
2018-07-20T11:12:50.924Z,2.93
2018-07-20T11:15:19.723Z,3.27
2018-07-20T11:17:48.536Z,3.07
2018-07-20T11:20:17.373Z,3.50
2018-07-20T11:22:46.187Z,3.87
2018-07-20T11:25:15.093Z,3.57
2018-07-20T11:27:43.943Z,3.47
2018-07-20T11:30:12.746Z,3.27
2018-07-20T11:32:41.853Z,3.63
2018-07-20T11:35:10.625Z,3.00
2018-07-20T11:37:39.448Z,3.73
2018-07-20T11:40:08.500Z,4.40
2018-07-20T11:42:37.428Z,4.47
2018-07-20T11:45:06.787Z,3.40
2018-07-20T11:47:35.576Z,3.30
2018-07-20T11:50:04.928Z,3.90
2018-07-20T11:52:33.693Z,4.27
2018-07-20T11:55:02.503Z,3.83
2018-07-20T11:57:31.288Z,4.20
2018-07-20T12:00:00.396Z,3.30
2018-07-20T12:02:29.159Z,3.10
2018-07-20T12:04:57.912Z,3.40
2018-07-20T12:07:26.700Z,3.40
2018-07-20T12:09:55.462Z,3.27
2018-07-20T12:12:24.300Z,3.30
2018-07-20T12:14:53.400Z,3.53
2018-07-20T12:17:22.195Z,3.90
2018-07-20T12:19:51.005Z,3.00
2018-07-20T12:22:20.017Z,3.40
2018-07-20T12:24:48.774Z,3.40
2018-07-20T12:27:17.620Z,3.77
2018-07-20T12:29:46.526Z,3.27
2018-07-20T12:32:15.393Z,3.10
2018-07-20T12:34:44.157Z,3.67
2018-07-20T12:37:13.245Z,2.90
2018-07-20T12:39:42.000Z,3.67
2018-07-20T12:42:10.764Z,4.20
2018-07-20T12:44:39.642Z,2.57
2018-07-20T12:47:08.421Z,3.43
2018-07-20T12:49:37.200Z,3.53
2018-07-20T12:52:06.010Z,3.27
2018-07-20T12:54:34.842Z,2.93
2018-07-20T12:57:03.557Z,3.50
2018-07-20T12:59:32.221Z,2.87
2018-07-20T13:02:01.000Z,2.77
2018-07-20T13:04:29.765Z,3.10
2018-07-20T13:06:58.636Z,3.63
2018-07-20T13:09:27.453Z,2.33
2018-07-20T13:11:56.404Z,2.63
2018-07-20T13:14:25.158Z,2.87
2018-07-20T13:16:54.021Z,3.27
2018-07-20T13:19:22.853Z,3.10
2018-07-20T13:21:51.656Z,3.33
2018-07-20T13:24:20.697Z,3.13
2018-07-20T13:26:49.448Z,3.23
2018-07-20T13:29:18.269Z,3.60
2018-07-20T13:31:47.165Z,3.07
2018-07-20T13:34:15.917Z,3.20
2018-07-20T13:36:44.769Z,2.87
2018-07-20T13:39:13.563Z,2.90
2018-07-20T13:41:42.393Z,2.87
2018-07-20T13:44:11.273Z,3.60
2018-07-20T13:46:40.052Z,3.13
2018-07-20T13:49:08.804Z,3.20
2018-07-20T13:51:37.781Z,3.00
2018-07-20T13:54:06.586Z,3.30
2018-07-20T13:56:35.349Z,3.37
2018-07-20T13:59:04.183Z,2.67
2018-07-20T14:01:33.180Z,3.07
2018-07-20T14:04:01.949Z,3.30
2018-07-20T14:06:30.700Z,3.63
2018-07-20T14:08:59.593Z,3.27
2018-07-20T14:11:28.442Z,3.40
2018-07-20T14:13:57.297Z,3.40
2018-07-20T14:16:26.101Z,4.33
2018-07-20T14:18:54.900Z,3.70
2018-07-20T14:21:23.696Z,2.93
2018-07-20T14:23:52.436Z,3.23
2018-07-20T14:26:21.406Z,4.20
2018-07-20T14:28:50.180Z,2.77
2018-07-20T14:31:19.004Z,3.13
2018-07-20T14:33:47.817Z,2.50
2018-07-20T14:36:16.813Z,3.20
2018-07-20T14:38:45.712Z,3.90
2018-07-20T14:41:14.472Z,3.57
2018-07-20T14:43:43.252Z,2.60
2018-07-20T14:46:12.013Z,3.70
2018-07-20T14:48:40.816Z,3.90
2018-07-20T14:51:09.855Z,3.60
2018-07-20T14:53:39.136Z,3.07
2018-07-20T14:56:07.897Z,4.17
2018-07-20T14:58:36.648Z,3.50
2018-07-20T15:01:05.473Z,3.63
2018-07-20T15:03:34.236Z,3.40
2018-07-20T15:06:03.033Z,3.60
2018-07-20T15:08:31.883Z,3.43
2018-07-20T15:11:01.048Z,3.27
2018-07-20T15:13:29.905Z,3.43
2018-07-20T15:15:58.817Z,3.80
2018-07-20T15:18:27.785Z,3.10
2018-07-20T15:20:56.636Z,3.10
2018-07-20T15:23:25.785Z,3.23
2018-07-20T15:25:54.808Z,2.90
2018-07-20T15:28:24.453Z,2.67
2018-07-20T15:30:53.357Z,3.07
2018-07-20T15:33:22.218Z,2.93
2018-07-20T15:35:50.993Z,2.87
2018-07-20T15:38:19.744Z,3.23
2018-07-20T15:40:48.613Z,2.90
2018-07-20T15:43:17.612Z,3.20
2018-07-20T15:45:52.099Z,3.00
2018-07-20T15:48:16.304Z,2.90
2018-07-20T15:50:45.053Z,2.93
2018-07-20T15:55:42.745Z,3.40
2018-07-20T15:58:11.667Z,3.00
2018-07-20T16:00:40.512Z,2.50
2018-07-20T16:03:09.261Z,2.77
2018-07-20T16:05:38.123Z,2.27
2018-07-20T16:08:06.832Z,3.33
2018-07-20T16:10:35.642Z,3.67
2018-07-20T16:13:04.457Z,2.93
2018-07-20T16:15:33.349Z,2.90
2018-07-20T16:18:02.144Z,3.13
2018-07-20T16:20:30.892Z,3.40
2018-07-20T16:22:59.685Z,2.70
2018-07-20T16:25:28.464Z,2.70
2018-07-20T16:27:57.569Z,3.77
2018-07-20T16:30:26.368Z,3.07
2018-07-20T16:32:55.277Z,3.43
2018-07-20T16:35:24.181Z,4.17
2018-07-20T16:37:53.044Z,3.33
2018-07-20T16:40:21.888Z,3.20
2018-07-20T16:42:50.784Z,3.70
2018-07-20T16:45:19.440Z,3.17
2018-07-20T16:47:48.109Z,3.13
2018-07-20T16:50:17.084Z,3.17
2018-07-20T16:52:45.877Z,3.50
2018-07-20T16:55:14.739Z,4.33
2018-07-20T16:57:43.496Z,3.73
2018-07-20T17:00:12.388Z,2.90
2018-07-20T17:02:41.226Z,2.90
2018-07-20T17:05:10.096Z,2.93
2018-07-20T17:07:39.003Z,3.50
2018-07-20T17:10:08.033Z,3.23
2018-07-20T17:12:36.527Z,3.10
2018-07-20T17:15:05.320Z,3.40
2018-07-20T17:17:34.105Z,3.37
2018-07-20T17:20:03.114Z,3.30
2018-07-20T17:22:31.913Z,4.13
2018-07-20T17:25:00.913Z,4.10
2018-07-20T17:27:29.920Z,3.43
2018-07-20T17:29:58.829Z,3.67
2018-07-20T17:32:27.620Z,3.20
2018-07-20T17:34:56.433Z,3.97
2018-07-20T17:37:25.473Z,3.50
2018-07-20T17:39:54.238Z,2.97
2018-07-20T17:42:23.013Z,3.70
2018-07-20T17:44:51.806Z,3.97
2018-07-20T17:47:20.601Z,3.00
2018-07-20T17:49:49.444Z,3.73
2018-07-20T17:52:18.440Z,3.40
2018-07-20T17:54:47.444Z,3.30
2018-07-20T17:57:16.252Z,3.60
2018-07-20T17:59:45.252Z,3.37
2018-07-20T18:02:14.064Z,4.03
2018-07-20T18:04:42.861Z,3.80
2018-07-20T18:07:11.973Z,3.60
2018-07-20T18:09:40.868Z,4.07
2018-07-20T18:12:09.846Z,4.40
2018-07-20T18:14:38.577Z,4.43
2018-07-20T18:17:07.711Z,4.20
2018-07-20T18:19:36.583Z,5.00
2018-07-20T18:22:05.705Z,4.63
2018-07-20T18:24:34.592Z,4.50
2018-07-20T18:27:03.452Z,4.33
2018-07-20T18:29:32.205Z,4.27
2018-07-20T18:32:00.996Z,4.77
2018-07-20T18:34:29.908Z,4.43
2018-07-20T18:36:58.716Z,4.07
2018-07-20T18:39:27.610Z,4.07
2018-07-20T18:41:56.376Z,4.33
2018-07-20T18:44:25.175Z,3.90
2018-07-20T18:46:53.993Z,4.10
2018-07-20T18:49:22.750Z,4.30
2018-07-20T18:51:51.604Z,5.47
2018-07-20T18:54:20.419Z,5.07
2018-07-20T18:56:49.524Z,4.37
2018-07-20T18:59:18.328Z,4.70
2018-07-20T19:01:47.229Z,5.07
2018-07-20T19:04:15.836Z,5.80
2018-07-20T19:06:44.556Z,4.40
2018-07-20T19:09:13.435Z,4.80
2018-07-20T19:11:42.291Z,4.20
2018-07-20T19:14:11.137Z,5.03
2018-07-20T19:16:39.924Z,4.97
2018-07-20T19:19:08.738Z,5.20
2018-07-20T19:21:37.498Z,4.97
2018-07-20T19:24:06.279Z,5.33
2018-07-20T19:26:35.141Z,5.33
2018-07-20T19:29:03.933Z,7.17
2018-07-20T19:31:32.809Z,5.20
2018-07-20T19:34:01.581Z,5.90
2018-07-20T19:36:30.360Z,5.23
2018-07-20T19:38:59.215Z,5.83
2018-07-20T19:41:28.885Z,4.93
2018-07-20T19:43:57.636Z,5.67
2018-07-20T19:46:26.487Z,4.83
2018-07-20T19:48:55.340Z,6.37
2018-07-20T19:51:24.104Z,6.80
2018-07-20T19:53:52.856Z,6.57
2018-07-20T19:56:21.905Z,6.20
2018-07-20T19:58:50.763Z,7.30
2018-07-20T20:01:19.488Z,6.97
2018-07-20T20:03:48.286Z,6.43
2018-07-20T20:06:17.079Z,7.47
2018-07-20T20:08:45.872Z,6.17
2018-07-20T20:11:14.889Z,6.20
2018-07-20T20:13:43.784Z,7.80
2018-07-20T20:16:12.545Z,7.03
2018-07-20T20:18:41.332Z,7.67
2018-07-20T20:21:10.192Z,8.43
2018-07-20T20:23:39.007Z,7.70
2018-07-20T20:26:07.749Z,10.03
2018-07-20T20:28:36.639Z,8.50
2018-07-20T20:31:05.401Z,5.70
2018-07-20T20:33:34.224Z,8.77
2018-07-20T20:36:02.991Z,9.40
2018-07-20T20:38:32.009Z,8.47
2018-07-20T20:41:00.777Z,8.60
2018-07-20T20:43:29.659Z,7.63
2018-07-20T20:45:58.357Z,7.70
2018-07-20T20:48:27.125Z,7.67
2018-07-20T20:50:55.993Z,7.83
2018-07-20T20:53:24.744Z,8.53
2018-07-20T20:55:53.561Z,9.20
2018-07-20T20:58:22.431Z,9.37
2018-07-20T21:00:51.191Z,7.90
2018-07-20T21:03:19.976Z,8.13
2018-07-20T21:05:49.236Z,8.40
2018-07-20T21:08:18.513Z,8.20
2018-07-20T21:10:47.270Z,9.20
2018-07-20T21:13:16.144Z,8.20
2018-07-20T21:15:45.262Z,8.37
2018-07-20T21:18:14.039Z,8.03
2018-07-20T21:20:42.792Z,7.63
2018-07-20T21:23:11.654Z,7.30
2018-07-20T21:25:40.468Z,8.63
2018-07-20T21:28:09.256Z,7.93
2018-07-20T21:30:38.054Z,8.40
2018-07-20T21:33:06.814Z,7.57
2018-07-20T21:35:35.665Z,7.53
2018-07-20T21:38:04.685Z,7.80
2018-07-20T21:40:33.469Z,8.20
2018-07-20T21:43:02.369Z,7.50
2018-07-20T21:45:31.165Z,7.53
2018-07-20T21:47:59.953Z,7.00
2018-07-20T21:50:28.696Z,6.03
2018-07-20T21:52:57.496Z,6.47
2018-07-20T21:55:26.256Z,5.40
2018-07-20T21:57:55.000Z,5.80
2018-07-20T22:00:24.071Z,5.10
2018-07-20T22:02:52.835Z,6.07
2018-07-20T22:05:21.585Z,6.63
2018-07-20T22:07:50.689Z,6.93
2018-07-20T22:10:26.193Z,8.00
2018-07-20T22:12:55.254Z,6.60
2018-07-20T22:15:24.009Z,8.20
2018-07-20T22:17:52.751Z,7.87
2018-07-20T22:20:21.777Z,6.23
2018-07-20T22:22:50.529Z,6.37
2018-07-20T22:25:19.292Z,6.00
2018-07-20T22:27:48.084Z,5.67
2018-07-20T22:30:17.219Z,6.17
2018-07-20T22:32:46.274Z,5.97
2018-07-20T22:35:15.029Z,5.90
2018-07-20T22:37:43.778Z,6.00
2018-07-20T22:40:12.680Z,7.50
2018-07-20T22:42:41.481Z,7.07
2018-07-20T22:45:10.188Z,6.83
2018-07-20T22:47:38.819Z,5.83
2018-07-20T22:50:07.781Z,5.87
2018-07-20T22:52:36.582Z,5.73
2018-07-20T22:55:05.389Z,6.87
2018-07-20T22:57:34.355Z,6.00
2018-07-20T23:00:03.101Z,6.20
2018-07-20T23:02:31.893Z,5.93
2018-07-20T23:05:00.701Z,5.80
2018-07-20T23:07:29.488Z,5.63
2018-07-20T23:09:58.249Z,5.20
2018-07-20T23:12:27.028Z,4.40
2018-07-20T23:14:55.897Z,5.90
2018-07-20T23:17:24.696Z,5.20
2018-07-20T23:19:53.483Z,5.20
2018-07-20T23:22:22.429Z,5.23
2018-07-20T23:24:51.305Z,4.67
2018-07-20T23:27:20.092Z,5.07
2018-07-20T23:29:48.833Z,5.63
2018-07-20T23:32:17.713Z,5.03
2018-07-20T23:34:46.820Z,4.40
2018-07-20T23:37:15.617Z,5.00
2018-07-20T23:39:44.725Z,4.33
2018-07-20T23:42:13.733Z,4.23
2018-07-20T23:44:42.533Z,4.23
2018-07-20T23:47:11.541Z,4.20
2018-07-20T23:49:40.289Z,4.50
2018-07-20T23:52:09.076Z,4.93
2018-07-20T23:57:13.090Z,4.47
2018-07-20T23:59:41.913Z,3.73
